Time;durP1;ratioP1;P1;durP2;ratioP2;P2;SDS_P1;SDS_P2;PMS_P1;PMS_P2;Temp;Humidity;BMP_temperature;BMP_pressure;BME280_temperature;BME280_humidity;BME280_pressure;Samples;Min_cycle;Max_cycle;Signal;HPM_P1;HPM_P2
2023/01/17 00:10:06;;;;;;;;;;;3.90;99.90;;;;;;8409683;28;20408;-74
2023/01/17 00:13:59;;;;;;;;;;;3.90;99.90;;;;;;8416805;28;19955;-75
2023/01/17 00:18:01;;;;;;;;;;;3.80;99.90;;;;;;8420521;28;20338;-74
2023/01/17 00:26:30;;;;;;;;;;;3.80;99.90;;;;;;8415662;28;19939;-74
2023/01/17 01:34:25;;;;;;;;;;;2.40;99.90;;;;;;8422871;28;19924;-75
2023/01/17 01:38:26;;;;;;;;;;;2.40;99.90;;;;;;8427314;28;19924;-75
2023/01/17 01:42:28;;;;;;;;;;;2.40;99.90;;;;;;8414236;28;19932;-75
2023/01/17 01:46:30;;;;;;;;;;;2.40;99.90;;;;;;8447423;28;20307;-74
2023/01/17 01:50:35;;;;;;;;;;;2.30;99.90;;;;;;8423194;28;19960;-74
2023/01/17 01:54:41;;;;;;;;;;;2.30;99.90;;;;;;8425687;28;19928;-75
2023/01/17 01:58:45;;;;;;;;;;;2.30;99.90;;;;;;8422699;28;19924;-74
2023/01/17 02:02:48;;;;;;;;;;;2.30;99.90;;;;;;8437576;27;20359;-74
2023/01/17 02:06:52;;;;;;;;;;;2.20;99.90;;;;;;8413012;28;20299;-75
2023/01/17 02:10:54;;;;;;;;;;;2.20;99.90;;;;;;8426629;28;19936;-74
2023/01/17 02:14:56;;;;;;;;;;;2.20;99.90;;;;;;8422265;28;19932;-74
2023/01/17 02:18:58;;;;;;;;;;;2.20;99.90;;;;;;8437256;27;19930;-74
2023/01/17 02:23:19;;;;;;;;;;;2.10;99.90;;;;;;8427589;28;19928;-74
2023/01/17 02:27:26;;;;;;;;;;;2.10;99.90;;;;;;8420223;28;19924;-74
2023/01/17 02:31:35;;;;;;;;;;;2.10;99.90;;;;;;8421069;28;19927;-74
2023/01/17 02:35:49;;;;;;;;;;;2.10;99.90;;;;;;8419636;28;19925;-74
2023/01/17 02:39:54;;;;;;;;;;;2.20;99.90;;;;;;8421976;28;19931;-74
2023/01/17 02:43:56;;;;;;;;;;;2.20;99.90;;;;;;8424489;28;19932;-74
2023/01/17 02:47:58;;;;;;;;;;;2.20;99.90;;;;;;8421742;28;19934;-75
2023/01/17 02:52:11;;;;;;;;;;;2.20;99.90;;;;;;8404723;28;19924;-74
2023/01/17 02:56:13;;;;;;;;;;;2.20;99.90;;;;;;8441912;27;19924;-74
2023/01/17 03:00:14;;;;;;;;;;;2.20;99.90;;;;;;8420780;28;19942;-74
2023/01/17 03:04:35;;;;;;;;;;;2.10;99.90;;;;;;8422086;28;19932;-74
2023/01/17 03:08:40;;;;;;;;;;;2.10;99.90;;;;;;8414974;28;20014;-74
2023/01/17 03:12:42;;;;;;;;;;;2.00;99.90;;;;;;8436303;28;19931;-74
2023/01/17 03:16:44;;;;;;;;;;;2.00;99.90;;;;;;8412588;28;19970;-74
2023/01/17 03:20:45;;;;;;;;;;;1.90;99.90;;;;;;8424608;28;19930;-74
2023/01/17 03:24:47;;;;;;;;;;;1.80;99.90;;;;;;8405394;28;19928;-74
2023/01/17 03:28:49;;;;;;;;;;;1.80;99.90;;;;;;8415366;28;19951;-74
2023/01/17 03:32:51;;;;;;;;;;;1.80;99.90;;;;;;8400311;28;19931;-74
2023/01/17 03:36:52;;;;;;;;;;;1.70;99.90;;;;;;8406781;28;19924;-74
2023/01/17 03:40:54;;;;;;;;;;;1.60;99.90;;;;;;8423671;28;20325;-74
2023/01/17 03:44:55;;;;;;;;;;;1.60;99.90;;;;;;8419325;28;19932;-74
2023/01/17 03:48:57;;;;;;;;;;;1.60;99.90;;;;;;8417991;28;20018;-74
2023/01/17 03:52:59;;;;;;;;;;;1.50;99.90;;;;;;8421313;28;19924;-74
2023/01/17 03:57:01;;;;;;;;;;;1.50;99.90;;;;;;8417440;28;20414;-74
2023/01/17 04:01:02;;;;;;;;;;;1.40;99.90;;;;;;8418165;28;19946;-75
2023/01/17 04:05:04;;;;;;;;;;;1.40;99.90;;;;;;8406333;28;19935;-74
2023/01/17 04:09:06;;;;;;;;;;;1.40;99.90;;;;;;8418029;28;19924;-74
2023/01/17 04:13:07;;;;;;;;;;;1.40;99.90;;;;;;8422379;28;19924;-74
2023/01/17 04:17:13;;;;;;;;;;;1.40;99.90;;;;;;8414452;28;19928;-74
2023/01/17 04:26:18;;;;;;;;;;;1.50;99.90;;;;;;8423337;28;19921;-74
2023/01/17 04:30:19;;;;;;;;;;;1.50;99.90;;;;;;8420643;28;19930;-74
2023/01/17 04:34:21;;;;;;;;;;;1.40;99.90;;;;;;8424964;28;20039;-74
2023/01/17 04:38:23;;;;;;;;;;;1.40;99.90;;;;;;8422077;28;20328;-74
2023/01/17 04:42:24;;;;;;;;;;;1.40;99.90;;;;;;8401920;28;19928;-74
2023/01/17 04:46:26;;;;;;;;;;;1.40;99.90;;;;;;8427415;28;19963;-74
2023/01/17 04:50:28;;;;;;;;;;;1.40;99.90;;;;;;8429868;28;19977;-74
2023/01/17 04:54:30;;;;;;;;;;;1.40;99.90;;;;;;8439537;28;19971;-75
2023/01/17 04:58:32;;;;;;;;;;;1.40;99.90;;;;;;8401399;28;19924;-74
2023/01/17 05:02:33;;;;;;;;;;;1.30;99.90;;;;;;8424796;28;19932;-75
2023/01/17 05:06:35;;;;;;;;;;;1.30;99.90;;;;;;8427006;28;19928;-74
2023/01/17 05:10:37;;;;;;;;;;;1.30;99.90;;;;;;8412203;28;19924;-74
2023/01/17 05:14:38;;;;;;;;;;;1.20;99.90;;;;;;8411679;28;19930;-74
2023/01/17 05:18:40;;;;;;;;;;;1.20;99.90;;;;;;8422353;28;20284;-75
2023/01/17 05:22:42;;;;;;;;;;;1.20;99.90;;;;;;8431114;28;19924;-74
2023/01/17 05:26:44;;;;;;;;;;;1.20;99.90;;;;;;8437241;28;19924;-74
2023/01/17 05:30:45;;;;;;;;;;;1.20;99.90;;;;;;8403413;28;19955;-74
2023/01/17 05:34:47;;;;;;;;;;;1.10;99.90;;;;;;8425246;28;19928;-75
2023/01/17 05:38:49;;;;;;;;;;;1.10;99.90;;;;;;8414613;28;19941;-74
2023/01/17 05:42:52;;;;;;;;;;;1.10;99.90;;;;;;8413487;28;19967;-74
2023/01/17 05:46:54;;;;;;;;;;;1.10;99.90;;;;;;8410568;28;19924;-75
2023/01/17 05:50:55;;;;;;;;;;;1.10;99.90;;;;;;8418174;28;20035;-74
2023/01/17 05:54:57;;;;;;;;;;;1.10;99.90;;;;;;8414955;28;20293;-74
2023/01/17 05:58:59;;;;;;;;;;;1.20;99.90;;;;;;8407783;28;19931;-74
2023/01/17 06:03:00;;;;;;;;;;;1.20;99.90;;;;;;8426500;28;19924;-74
2023/01/17 06:07:02;;;;;;;;;;;1.20;99.90;;;;;;8411742;28;20403;-74
2023/01/17 06:11:04;;;;;;;;;;;1.30;99.90;;;;;;8405071;28;19924;-74
2023/01/17 06:15:06;;;;;;;;;;;1.30;99.90;;;;;;8431998;28;19932;-74
2023/01/17 06:19:08;;;;;;;;;;;1.20;99.90;;;;;;8430426;28;19924;-74
2023/01/17 06:23:11;;;;;;;;;;;1.20;99.90;;;;;;8427243;28;19932;-74
2023/01/17 06:27:12;;;;;;;;;;;1.20;99.90;;;;;;8422015;28;19928;-74
2023/01/17 06:31:14;;;;;;;;;;;1.20;99.90;;;;;;8403157;28;19924;-75
2023/01/17 06:35:15;;;;;;;;;;;1.20;99.90;;;;;;8426266;28;19932;-74
2023/01/17 06:39:17;;;;;;;;;;;1.20;99.90;;;;;;8421334;28;19975;-74
2023/01/17 06:43:19;;;;;;;;;;;1.20;99.90;;;;;;8404933;28;19932;-74
2023/01/17 06:47:20;;;;;;;;;;;1.10;99.90;;;;;;8420613;28;19931;-74
2023/01/17 06:51:22;;;;;;;;;;;1.10;99.90;;;;;;8418275;28;21155;-75
2023/01/17 06:55:27;;;;;;;;;;;1.10;99.90;;;;;;8409434;28;19924;-75
2023/01/17 06:59:29;;;;;;;;;;;1.00;99.90;;;;;;8406858;28;19947;-75
2023/01/17 07:03:31;;;;;;;;;;;1.00;99.90;;;;;;8428558;28;19931;-74
2023/01/17 07:07:33;;;;;;;;;;;1.00;99.90;;;;;;8425410;28;19924;-74
2023/01/17 07:11:35;;;;;;;;;;;0.90;99.90;;;;;;8423907;28;19928;-74
2023/01/17 07:15:36;;;;;;;;;;;0.90;99.90;;;;;;8398199;28;19933;-74
2023/01/17 07:19:38;;;;;;;;;;;0.80;99.90;;;;;;8421222;28;20328;-74
2023/01/17 07:23:40;;;;;;;;;;;0.80;99.90;;;;;;8424803;28;20375;-74
2023/01/17 07:27:42;;;;;;;;;;;0.70;99.90;;;;;;8419347;28;19928;-74
2023/01/17 07:31:43;;;;;;;;;;;0.60;99.90;;;;;;8420860;28;19938;-74
2023/01/17 07:35:45;;;;;;;;;;;0.60;99.90;;;;;;8409882;28;20299;-74
2023/01/17 07:39:48;;;;;;;;;;;0.60;99.90;;;;;;8421554;28;20409;-74
2023/01/17 07:43:49;;;;;;;;;;;0.50;99.90;;;;;;8420225;28;19939;-74
2023/01/17 07:47:51;;;;;;;;;;;0.50;99.90;;;;;;8418743;28;19928;-74
2023/01/17 07:51:54;;;;;;;;;;;0.50;99.90;;;;;;8429479;28;19928;-74
2023/01/17 07:55:58;;;;;;;;;;;0.50;99.90;;;;;;8429282;28;19924;-75
2023/01/17 08:00:00;;;;;;;;;;;0.50;99.90;;;;;;8425545;28;19934;-75
2023/01/17 08:04:02;;;;;;;;;;;0.50;99.90;;;;;;8425448;28;20391;-74
2023/01/17 08:08:04;;;;;;;;;;;0.50;99.90;;;;;;8420684;28;19925;-75
2023/01/17 08:12:05;;;;;;;;;;;0.50;99.90;;;;;;8412631;28;20391;-75
2023/01/17 08:16:09;;;;;;;;;;;0.60;99.90;;;;;;8415570;28;20451;-74
2023/01/17 08:20:11;;;;;;;;;;;0.60;99.90;;;;;;8433493;27;19924;-74
2023/01/17 08:24:13;;;;;;;;;;;0.60;99.90;;;;;;8406337;28;20376;-75
2023/01/17 08:28:15;;;;;;;;;;;0.60;99.90;;;;;;8411521;28;19924;-75
2023/01/17 08:32:16;;;;;;;;;;;0.60;99.90;;;;;;8408600;28;19928;-74
2023/01/17 08:36:18;;;;;;;;;;;0.60;99.90;;;;;;8419329;28;19924;-75
2023/01/17 08:40:20;;;;;;;;;;;0.60;99.90;;;;;;8410315;28;20350;-75
2023/01/17 08:44:22;;;;;;;;;;;0.70;99.90;;;;;;8434193;28;19931;-74
2023/01/17 08:48:23;;;;;;;;;;;0.70;99.90;;;;;;8410034;28;19925;-74
2023/01/17 08:52:25;;;;;;;;;;;0.70;99.90;;;;;;8420056;28;20280;-74
2023/01/17 08:56:27;;;;;;;;;;;0.80;99.90;;;;;;8418874;28;19928;-75
2023/01/17 09:00:29;;;;;;;;;;;0.80;99.90;;;;;;8424061;28;20422;-74
2023/01/17 09:04:30;;;;;;;;;;;0.90;99.90;;;;;;8424650;28;20354;-74
2023/01/17 09:08:32;;;;;;;;;;;0.90;99.90;;;;;;8422595;28;20616;-74
2023/01/17 09:12:35;;;;;;;;;;;1.00;99.90;;;;;;8402082;28;20014;-74
2023/01/17 09:16:37;;;;;;;;;;;1.20;99.90;;;;;;8404340;28;20449;-74
2023/01/17 09:20:39;;;;;;;;;;;1.30;99.90;;;;;;8415196;28;20000;-74
2023/01/17 09:24:41;;;;;;;;;;;1.50;99.90;;;;;;8412307;28;20418;-74
2023/01/17 09:28:42;;;;;;;;;;;1.50;99.90;;;;;;8413768;28;20306;-75
2023/01/17 09:32:50;;;;;;;;;;;1.70;99.90;;;;;;8423411;28;20410;-74
2023/01/17 09:36:52;;;;;;;;;;;2.00;99.90;;;;;;8423405;28;19931;-75
2023/01/17 09:40:54;;;;;;;;;;;2.40;99.90;;;;;;8406963;28;20318;-74
2023/01/17 09:44:56;;;;;;;;;;;2.50;99.90;;;;;;8403490;28;20387;-74
2023/01/17 09:49:01;;;;;;;;;;;2.50;99.90;;;;;;8418980;28;19924;-74
2023/01/17 09:53:05;;;;;;;;;;;2.40;99.90;;;;;;8413227;28;19924;-74
2023/01/17 09:57:16;;;;;;;;;;;2.20;99.90;;;;;;8423546;28;19928;-74
2023/01/17 10:01:26;;;;;;;;;;;2.10;99.90;;;;;;8423205;28;20338;-74
2023/01/17 10:05:47;;;;;;;;;;;2.00;99.90;;;;;;8423415;28;19938;-74
2023/01/17 10:10:24;;;;;;;;;;;2.00;99.90;;;;;;8427947;28;19924;-74
2023/01/17 10:14:31;;;;;;;;;;;2.00;99.90;;;;;;8329164;28;20007;-74
2023/01/17 10:18:33;;;;;;;;;;;2.00;99.90;;;;;;8433525;28;20294;-74
2023/01/17 10:22:54;;;;;;;;;;;2.10;99.90;;;;;;8425879;28;19931;-74
2023/01/17 10:26:57;;;;;;;;;;;2.10;99.90;;;;;;8424474;28;19925;-74
2023/01/17 10:31:02;;;;;;;;;;;2.30;99.90;;;;;;8425050;28;19932;-74
2023/01/17 10:35:14;;;;;;;;;;;2.50;99.90;;;;;;8428964;28;19932;-74
2023/01/17 10:39:23;;;;;;;;;;;2.60;99.90;;;;;;8416265;28;19930;-75
2023/01/17 10:43:44;;;;;;;;;;;2.90;99.90;;;;;;8429283;28;19947;-74
2023/01/17 10:47:50;;;;;;;;;;;3.20;99.90;;;;;;8444276;27;20333;-74
2023/01/17 10:52:10;;;;;;;;;;;3.50;99.90;;;;;;8430335;28;19932;-76
2023/01/17 10:56:13;;;;;;;;;;;3.80;99.90;;;;;;8444731;27;20391;-75
2023/01/17 11:00:16;;;;;;;;;;;4.00;99.90;;;;;;8426374;28;19947;-74
2023/01/17 11:04:20;;;;;;;;;;;4.40;99.90;;;;;;8425547;28;20306;-74
2023/01/17 11:08:22;;;;;;;;;;;4.80;99.90;;;;;;8427136;28;19924;-74
2023/01/17 11:12:31;;;;;;;;;;;5.00;99.90;;;;;;8407145;28;20235;-74
2023/01/17 11:16:32;;;;;;;;;;;5.20;99.90;;;;;;8417345;28;19939;-74
2023/01/17 11:20:38;;;;;;;;;;;5.20;99.90;;;;;;8421161;28;19924;-74
2023/01/17 11:24:46;;;;;;;;;;;5.50;99.90;;;;;;8415614;28;19924;-74
2023/01/17 11:28:47;;;;;;;;;;;5.80;99.90;;;;;;8434749;28;19929;-74
2023/01/17 11:32:54;;;;;;;;;;;5.90;99.90;;;;;;8423895;28;19946;-75
2023/01/17 11:37:14;;;;;;;;;;;5.80;99.90;;;;;;8403180;28;19932;-74
2023/01/17 11:41:19;;;;;;;;;;;5.80;99.90;;;;;;8422680;28;19967;-74
2023/01/17 11:45:20;;;;;;;;;;;6.50;99.90;;;;;;8428109;28;19972;-75
2023/01/17 11:49:26;;;;;;;;;;;7.20;99.90;;;;;;8430331;28;19931;-75
2023/01/17 11:53:32;;;;;;;;;;;7.70;99.90;;;;;;8417607;28;19924;-75
2023/01/17 11:57:34;;;;;;;;;;;8.10;99.90;;;;;;8414380;28;19974;-75
2023/01/17 12:01:42;;;;;;;;;;;8.30;99.90;;;;;;8410663;28;20428;-74
2023/01/17 12:06:02;;;;;;;;;;;8.70;99.90;;;;;;8420074;28;20291;-75
2023/01/17 12:10:07;;;;;;;;;;;9.10;99.90;;;;;;8412779;28;19930;-74
2023/01/17 12:14:27;;;;;;;;;;;9.10;99.90;;;;;;8419766;28;20281;-75
2023/01/17 12:18:42;;;;;;;;;;;9.10;99.90;;;;;;8429455;28;21225;-75
2023/01/17 12:22:49;;;;;;;;;;;8.90;99.90;;;;;;8420253;28;19991;-75
2023/01/17 12:27:09;;;;;;;;;;;9.20;99.90;;;;;;8428515;28;19930;-72
2023/01/17 12:31:11;;;;;;;;;;;9.80;99.90;;;;;;8430109;27;19924;-72
2023/01/17 12:35:15;;;;;;;;;;;10.00;99.90;;;;;;8409631;28;19924;-72
2023/01/17 12:39:19;;;;;;;;;;;9.90;99.90;;;;;;8402385;28;19932;-72
2023/01/17 12:43:24;;;;;;;;;;;10.00;99.90;;;;;;8421915;28;19959;-73
2023/01/17 12:47:25;;;;;;;;;;;10.10;99.90;;;;;;8422536;28;19924;-72
2023/01/17 12:51:29;;;;;;;;;;;10.00;99.90;;;;;;8424299;28;20023;-72
2023/01/17 12:55:48;;;;;;;;;;;9.80;99.90;;;;;;8436757;28;19925;-72
2023/01/17 12:59:57;;;;;;;;;;;9.40;99.90;;;;;;8418496;28;19935;-72
2023/01/17 13:04:07;;;;;;;;;;;9.10;99.90;;;;;;8419453;28;19930;-72
2023/01/17 13:08:18;;;;;;;;;;;9.10;99.90;;;;;;8418935;28;20469;-73
2023/01/17 13:12:21;;;;;;;;;;;9.20;99.90;;;;;;8424599;28;19931;-72
2023/01/17 13:16:32;;;;;;;;;;;9.40;99.90;;;;;;8418773;28;19931;-72
2023/01/17 13:20:46;;;;;;;;;;;9.60;99.90;;;;;;8423080;28;19927;-72
2023/01/17 13:24:57;;;;;;;;;;;10.20;99.90;;;;;;8441333;28;19932;-72
2023/01/17 13:28:59;;;;;;;;;;;10.50;99.90;;;;;;8423163;28;20279;-72
2023/01/17 13:33:08;;;;;;;;;;;10.50;99.90;;;;;;8451315;27;19924;-72
2023/01/17 13:37:29;;;;;;;;;;;9.90;99.90;;;;;;8422253;28;19971;-72
2023/01/17 13:41:50;;;;;;;;;;;9.10;99.90;;;;;;8424261;28;19924;-72
2023/01/17 13:45:53;;;;;;;;;;;8.50;99.90;;;;;;8424866;28;19931;-72
2023/01/17 13:49:55;;;;;;;;;;;8.00;99.90;;;;;;8419638;28;19932;-72
2023/01/17 13:53:57;;;;;;;;;;;7.60;99.90;;;;;;8414289;28;20307;-72
2023/01/17 13:57:59;;;;;;;;;;;7.30;99.90;;;;;;8425238;28;20401;-75
2023/01/17 14:02:01;;;;;;;;;;;7.00;99.90;;;;;;8421805;28;19959;-75
2023/01/17 14:06:02;;;;;;;;;;;6.90;99.90;;;;;;8429371;28;19931;-75
2023/01/17 14:10:23;;;;;;;;;;;6.80;99.90;;;;;;8429496;28;19928;-74
2023/01/17 14:14:40;;;;;;;;;;;6.70;99.90;;;;;;8426637;28;19924;-75
2023/01/17 14:18:42;;;;;;;;;;;6.60;99.90;;;;;;8417028;28;19930;-74
2023/01/17 14:22:50;;;;;;;;;;;6.50;99.90;;;;;;8424773;28;19932;-74
2023/01/17 14:27:12;;;;;;;;;;;6.50;99.90;;;;;;8420139;28;20015;-74
2023/01/17 14:31:15;;;;;;;;;;;6.40;99.90;;;;;;8395382;28;19938;-75
2023/01/17 14:35:21;;;;;;;;;;;6.30;99.90;;;;;;8399203;28;19928;-75
2023/01/17 14:39:22;;;;;;;;;;;6.20;99.90;;;;;;8412605;28;19999;-75
2023/01/17 14:43:26;;;;;;;;;;;6.30;99.90;;;;;;8401456;28;19937;-75
2023/01/17 14:47:30;;;;;;;;;;;6.30;99.90;;;;;;8389233;28;20307;-75
2023/01/17 14:51:36;;;;;;;;;;;6.20;99.90;;;;;;8407296;28;24090;-75
2023/01/17 14:55:46;;;;;;;;;;;6.20;99.90;;;;;;8402787;28;19953;-75
2023/01/17 14:59:48;;;;;;;;;;;6.30;99.90;;;;;;8397348;28;20023;-75
2023/01/17 15:03:51;;;;;;;;;;;6.90;99.90;;;;;;8386840;28;20023;-75
2023/01/17 15:07:55;;;;;;;;;;;7.80;99.90;;;;;;8396016;28;19929;-76
2023/01/17 15:11:57;;;;;;;;;;;8.40;99.90;;;;;;8415964;27;20388;-75
2023/01/17 15:16:06;;;;;;;;;;;8.50;99.90;;;;;;8419613;27;19970;-75
2023/01/17 15:20:14;;;;;;;;;;;8.50;99.90;;;;;;8397459;28;19924;-75
2023/01/17 15:24:20;;;;;;;;;;;8.70;99.90;;;;;;8393880;28;19987;-75
2023/01/17 15:28:22;;;;;;;;;;;8.90;99.90;;;;;;8394206;28;19924;-75
2023/01/17 15:32:30;;;;;;;;;;;9.10;99.90;;;;;;8403736;28;20343;-75
2023/01/17 15:36:33;;;;;;;;;;;9.20;99.90;;;;;;8394763;28;19994;-75
2023/01/17 15:40:41;;;;;;;;;;;9.20;99.90;;;;;;8409557;28;19968;-75
2023/01/17 15:44:43;;;;;;;;;;;9.10;99.90;;;;;;8407888;28;20287;-75
2023/01/17 15:48:50;;;;;;;;;;;8.90;99.90;;;;;;8402903;28;19925;-75
2023/01/17 15:53:03;;;;;;;;;;;8.50;99.90;;;;;;8407486;28;19932;-75
2023/01/17 15:57:16;;;;;;;;;;;8.10;99.90;;;;;;8398932;28;19931;-75
2023/01/17 16:01:25;;;;;;;;;;;7.50;99.90;;;;;;8391576;28;19960;-75
2023/01/17 16:05:32;;;;;;;;;;;6.80;99.90;;;;;;8392405;28;19931;-75
2023/01/17 16:09:39;;;;;;;;;;;6.20;99.90;;;;;;8397131;28;19935;-75
2023/01/17 16:13:42;;;;;;;;;;;5.80;99.90;;;;;;8392360;28;20015;-74
2023/01/17 16:17:46;;;;;;;;;;;5.40;99.90;;;;;;8389302;28;19928;-74
2023/01/17 16:21:47;;;;;;;;;;;5.10;99.90;;;;;;8396332;28;19931;-75
2023/01/17 16:25:49;;;;;;;;;;;4.80;99.90;;;;;;8395529;28;19928;-75
2023/01/17 16:29:51;;;;;;;;;;;4.60;99.90;;;;;;8392943;28;20351;-75
2023/01/17 16:33:52;;;;;;;;;;;4.30;99.90;;;;;;8393008;28;19968;-75
2023/01/17 16:42:58;;;;;;;;;;;3.90;99.90;;;;;;8401461;28;20018;-75
2023/01/17 16:47:00;;;;;;;;;;;3.70;99.90;;;;;;8390196;28;19970;-75
2023/01/17 16:51:06;;;;;;;;;;;3.60;99.90;;;;;;8404544;28;19925;-75
2023/01/17 16:55:10;;;;;;;;;;;3.50;99.90;;;;;;8397129;28;19940;-75
2023/01/17 16:59:12;;;;;;;;;;;3.50;99.90;;;;;;8401855;28;19971;-75
2023/01/17 17:03:18;;;;;;;;;;;3.40;99.90;;;;;;8401489;28;20539;-73
2023/01/17 17:07:20;;;;;;;;;;;3.30;99.90;;;;;;8403451;28;19951;-73
2023/01/17 17:11:24;;;;;;;;;;;3.20;99.90;;;;;;8417426;28;19967;-73
2023/01/17 17:15:26;;;;;;;;;;;3.10;99.90;;;;;;8402739;28;20386;-73
2023/01/17 17:19:28;;;;;;;;;;;3.00;99.90;;;;;;8401241;28;19924;-73
2023/01/17 17:23:29;;;;;;;;;;;2.90;99.90;;;;;;8402592;28;20023;-74
2023/01/17 17:27:31;;;;;;;;;;;2.80;99.90;;;;;;8383732;28;19924;-73
2023/01/17 17:31:33;;;;;;;;;;;2.80;99.90;;;;;;8403803;28;20011;-73
2023/01/17 17:35:34;;;;;;;;;;;2.70;99.90;;;;;;8400489;28;20406;-73
2023/01/17 17:39:36;;;;;;;;;;;2.70;99.90;;;;;;8394646;28;19932;-73
2023/01/17 17:43:39;;;;;;;;;;;2.70;99.90;;;;;;8393799;28;19929;-73
2023/01/17 17:47:42;;;;;;;;;;;2.60;99.90;;;;;;8392882;28;19931;-73
2023/01/17 17:51:44;;;;;;;;;;;2.50;99.90;;;;;;8376468;28;20309;-73
2023/01/17 17:55:46;;;;;;;;;;;2.40;99.90;;;;;;8401497;28;19924;-73
2023/01/17 17:59:47;;;;;;;;;;;2.40;99.90;;;;;;8396654;28;19924;-73
2023/01/17 18:03:53;;;;;;;;;;;2.30;99.90;;;;;;8416458;27;19928;-73
2023/01/17 18:07:55;;;;;;;;;;;2.30;99.90;;;;;;8388441;28;20734;-73
2023/01/17 18:11:57;;;;;;;;;;;2.30;99.90;;;;;;8395992;28;19936;-73
2023/01/17 18:16:18;;;;;;;;;;;2.20;99.90;;;;;;8390376;28;19933;-73
2023/01/17 18:20:20;;;;;;;;;;;2.20;99.90;;;;;;8392528;28;19924;-73
2023/01/17 18:24:23;;;;;;;;;;;2.20;99.90;;;;;;8412178;28;19969;-73
2023/01/17 18:28:26;;;;;;;;;;;2.10;99.90;;;;;;8400026;28;19928;-73
2023/01/17 18:32:27;;;;;;;;;;;2.10;99.90;;;;;;8391193;28;19930;-73
2023/01/17 18:36:29;;;;;;;;;;;2.10;99.90;;;;;;8398751;28;19967;-73
2023/01/17 18:40:32;;;;;;;;;;;2.00;99.90;;;;;;8398507;28;19928;-73
2023/01/17 18:44:34;;;;;;;;;;;2.00;99.90;;;;;;8401718;28;19925;-73
2023/01/17 18:48:36;;;;;;;;;;;2.00;99.90;;;;;;8396121;28;19975;-73
2023/01/17 18:52:38;;;;;;;;;;;2.00;99.90;;;;;;8383554;28;19924;-73
2023/01/17 18:56:41;;;;;;;;;;;2.00;99.90;;;;;;8396472;28;20019;-73
2023/01/17 19:00:42;;;;;;;;;;;2.00;99.90;;;;;;8394087;28;19928;-73
2023/01/17 19:04:44;;;;;;;;;;;1.90;99.90;;;;;;8375546;28;19924;-74
2023/01/17 19:08:48;;;;;;;;;;;1.90;99.90;;;;;;8390337;28;19933;-73
2023/01/17 19:12:49;;;;;;;;;;;1.90;99.90;;;;;;8402014;28;19952;-73
2023/01/17 19:16:51;;;;;;;;;;;1.90;99.90;;;;;;8391886;28;20379;-73
2023/01/17 19:21:02;;;;;;;;;;;1.90;99.90;;;;;;8399097;28;19932;-73
2023/01/17 19:25:04;;;;;;;;;;;1.80;99.90;;;;;;8399171;28;20421;-73
2023/01/17 19:29:05;;;;;;;;;;;1.80;99.90;;;;;;8400837;28;19928;-73
2023/01/17 19:33:07;;;;;;;;;;;1.70;99.90;;;;;;8389882;28;19924;-73
2023/01/17 19:37:09;;;;;;;;;;;1.70;99.90;;;;;;8396241;28;19925;-73
2023/01/17 19:41:12;;;;;;;;;;;1.70;99.90;;;;;;8388587;28;19967;-73
2023/01/17 19:45:15;;;;;;;;;;;1.70;99.90;;;;;;8396278;28;19924;-74
2023/01/17 19:49:22;;;;;;;;;;;1.70;99.90;;;;;;8394664;28;20019;-73
2023/01/17 19:53:24;;;;;;;;;;;1.70;99.90;;;;;;8399013;28;19927;-73
2023/01/17 19:57:26;;;;;;;;;;;1.80;99.90;;;;;;8398100;28;19935;-73
2023/01/17 20:01:29;;;;;;;;;;;1.80;99.90;;;;;;8409986;27;20514;-73
2023/01/17 20:05:32;;;;;;;;;;;1.80;99.90;;;;;;8378733;28;20037;-73
2023/01/17 20:09:34;;;;;;;;;;;1.80;99.90;;;;;;8391594;28;20015;-73
2023/01/17 20:13:35;;;;;;;;;;;1.80;99.90;;;;;;8396732;28;19940;-73
2023/01/17 20:17:37;;;;;;;;;;;1.80;99.90;;;;;;8377230;28;19939;-73
2023/01/17 20:21:39;;;;;;;;;;;1.80;99.90;;;;;;8381865;28;19932;-73
2023/01/17 20:25:40;;;;;;;;;;;1.70;99.90;;;;;;8387919;28;19932;-73
2023/01/17 20:30:08;;;;;;;;;;;1.60;99.90;;;;;;8394216;28;19924;-73
2023/01/17 20:34:24;;;;;;;;;;;1.50;99.90;;;;;;8397340;28;20900;-73
2023/01/17 20:38:29;;;;;;;;;;;1.50;99.90;;;;;;8396231;28;19981;-73
2023/01/17 20:42:34;;;;;;;;;;;1.40;99.90;;;;;;8398223;28;20015;-73
2023/01/17 20:46:37;;;;;;;;;;;1.40;99.90;;;;;;8394998;28;20435;-73
2023/01/17 20:50:41;;;;;;;;;;;1.30;99.90;;;;;;8375905;28;19936;-73
2023/01/17 20:54:42;;;;;;;;;;;1.20;99.90;;;;;;8395343;28;20092;-75
2023/01/17 20:58:44;;;;;;;;;;;1.30;99.90;;;;;;8397792;28;19931;-73
2023/01/17 21:02:46;;;;;;;;;;;1.30;99.90;;;;;;8397090;28;20389;-73
2023/01/17 21:06:50;;;;;;;;;;;1.30;99.90;;;;;;8393391;28;20428;-73
2023/01/17 21:10:52;;;;;;;;;;;1.40;99.90;;;;;;8387964;28;20291;-73
2023/01/17 21:14:54;;;;;;;;;;;1.40;99.90;;;;;;8380320;28;19938;-73
2023/01/17 21:18:56;;;;;;;;;;;1.40;99.90;;;;;;8394468;28;20380;-74
2023/01/17 21:22:57;;;;;;;;;;;1.30;99.90;;;;;;8385795;28;20327;-73
2023/01/17 21:26:59;;;;;;;;;;;1.30;99.90;;;;;;8408981;28;19995;-73
2023/01/17 21:31:05;;;;;;;;;;;1.20;99.90;;;;;;8385334;28;19929;-73
2023/01/17 21:35:07;;;;;;;;;;;1.20;99.90;;;;;;8390870;28;19981;-73
2023/01/17 21:39:15;;;;;;;;;;;1.20;99.90;;;;;;8390921;28;20595;-73
2023/01/17 21:43:16;;;;;;;;;;;1.20;99.90;;;;;;8386152;28;19963;-73
2023/01/17 21:47:18;;;;;;;;;;;1.00;99.90;;;;;;8402961;28;19938;-73
2023/01/17 21:51:20;;;;;;;;;;;0.90;99.90;;;;;;8382102;28;19935;-73
2023/01/17 21:59:42;;;;;;;;;;;0.80;99.90;;;;;;8403654;28;20380;-73
2023/01/17 22:03:49;;;;;;;;;;;0.80;99.90;;;;;;8416788;28;20202;-73
2023/01/17 22:12:11;;;;;;;;;;;0.60;99.90;;;;;;8420864;28;19928;-73
2023/01/17 22:21:17;;;;;;;;;;;0.60;99.90;;;;;;8415473;28;19923;-73
2023/01/17 22:25:19;;;;;;;;;;;0.50;99.90;;;;;;8421365;28;19963;-73
2023/01/17 22:29:21;;;;;;;;;;;0.50;99.90;;;;;;8434831;27;19928;-73
2023/01/17 22:33:23;;;;;;;;;;;0.50;99.90;;;;;;8411142;28;20383;-73
2023/01/17 22:37:25;;;;;;;;;;;0.40;99.90;;;;;;8415343;28;20294;-73
2023/01/17 22:41:31;;;;;;;;;;;0.40;99.90;;;;;;8420950;28;19924;-74
2023/01/17 22:45:33;;;;;;;;;;;0.40;99.90;;;;;;8417376;28;19963;-73
2023/01/17 22:49:35;;;;;;;;;;;0.40;99.90;;;;;;8418138;28;19924;-73
2023/01/17 22:53:43;;;;;;;;;;;0.30;99.90;;;;;;8417374;28;19932;-74
2023/01/17 22:57:45;;;;;;;;;;;0.20;99.90;;;;;;8412975;28;19931;-73
2023/01/17 23:01:47;;;;;;;;;;;0.20;99.90;;;;;;8422402;28;20011;-73
2023/01/17 23:05:48;;;;;;;;;;;0.10;99.90;;;;;;8422493;28;20328;-73
2023/01/17 23:09:50;;;;;;;;;;;0.10;99.90;;;;;;8406931;28;20019;-73
2023/01/17 23:13:52;;;;;;;;;;;0.00;99.90;;;;;;8420524;28;19933;-73
2023/01/17 23:22:25;;;;;;;;;;;-0.10;99.90;;;;;;8421993;28;19939;-73
2023/01/17 23:26:27;;;;;;;;;;;-0.10;99.90;;;;;;8420676;28;19924;-73
2023/01/17 23:30:39;;;;;;;;;;;-0.20;99.90;;;;;;8420974;28;20295;-73
2023/01/17 23:34:40;;;;;;;;;;;-0.20;99.90;;;;;;8420955;28;19932;-73
2023/01/17 23:38:42;;;;;;;;;;;-0.30;99.90;;;;;;8411752;28;20034;-73
2023/01/17 23:47:04;;;;;;;;;;;-0.30;99.90;;;;;;8420533;28;20010;-73
2023/01/17 23:51:09;;;;;;;;;;;-0.30;99.90;;;;;;8414557;28;19942;-73
2023/01/17 23:55:10;;;;;;;;;;;-0.30;99.90;;;;;;8412217;28;20022;-73
2023/01/17 23:59:12;;;;;;;;;;;-0.30;99.90;;;;;;8416064;28;19932;-73
